Terminal Aerodrome Forecast
Issued by NWS Melbourne, FL

Home | Current Version | Previous Version | Text Only | Print | Product List | Glossary On
Versions: 1 2 3 4 5 6 7 8 9 10 11 12 13 14 15 16 17 18 19 20 21 22 23 24 25 26 27 28 29
000
FTUS42 KMLB 190856 AAA
TAFMCO
TAF AMD
KMCO 190856Z 1909/2006 00000KT P6SM BKN250
     FM191500 22004KT P6SM SCT030 SCT250
     FM192200 14007KT P6SM SCT050 SCT250=

USA.gov is the U.S. government's official web portal to all federal, state and local government web resources and services.